Aérodrome :
LOGIN :

S'inscrire | Disclaimer

   EN    FR    IT 

 










Légende :    VFR   VFR Marginal   IFR   IFR Intensif   IFR Très Intensif
Visi : 
Plafond : 
>= 8 km
>= 3000ft
5 à 8 km
1000 à 3000 ft
1500m à 5 km
500 à 1000 ft
800 à 1500m
200 à 500 ft
< 800m
< 200 ft
Symboles :   Orages  Brouillard  Fortes neiges  Fortes précipitations  Vent > 20 kt
SIGMETs :   Divers  Orages  Givrage  Turbulence  Onde Orograph.  Cendres Volcan.







- Altitude de l'aérodrome : 405 ft
- Code IATA : ODH


EGVO - RAF Odiham

DERNIER METAR :
  • 250350Z 25010KT 9999 FEW011 08/06 Q1011 BLU

METARs EXPIRÉS :
  • 250250Z 27009KT 9999 FEW010 SCT041 08/06 Q1010 BLU
  • 250150Z 26009KT 9999 FEW030 08/07 Q1010 BLU

TAF TAF EGVO
Valide du 25 à 00h jusqu'au 25 à 12h UTC


242222Z 2500/2512 22016G26KT 9999 BKN010
BECMG 2500/2503 26010KT FEW010
PROB30
TEMPO 2503/2506 SCT010
PROB30 2506/2509 SCT022
Pas de NOTAMs connus pour ce terrain.



MET'MAP, la Météo Aéronautique d'un coup d'oeil ! - Copyright ORBIFLY Décembre 2007 - Disclaimer

ORBIFLY MET'MAP TEAM :

Programmation & Développement : Alexandra Zaïnal
Conception & Développement : Baudouin d'Aumeries
Co-Programmation & Développement : Marc-Olivier Méhu
Soutien technique & logistique : Manuel Goepfert

Contact : metmap@orbifly.com




SOURCES & CREDITS :

   NOAA